Time;durP1;ratioP1;P1;durP2;ratioP2;P2;SDS_P1;SDS_P2;PMS_P1;PMS_P2;Temp;Humidity;BMP_temperature;BMP_pressure;BME280_temperature;BME280_humidity;BME280_pressure;Samples;Min_cycle;Max_cycle;Signal;HPM_P1;HPM_P2
2023/12/28 00:00:20;;;;;;;1.40;1.10;;;;;;;-145.69;41.36;52236.44;4919709;29;20208;-80
2023/12/28 00:02:47;;;;;;;1.83;1.13;;;;;;;-145.69;41.08;52230.50;4919406;29;20588;-79
2023/12/28 00:05:15;;;;;;;1.67;0.93;;;;;;;-145.69;40.65;52256.25;4920136;29;20214;-79
2023/12/28 00:07:42;;;;;;;1.90;1.20;;;;;;;-145.69;41.12;52262.19;4919328;29;20555;-79
2023/12/28 00:10:09;;;;;;;1.53;1.10;;;;;;;-145.69;40.94;52214.66;4919053;29;20579;-80
2023/12/28 00:12:35;;;;;;;1.00;1.00;;;;;;;-145.69;41.23;52236.44;4917791;29;20196;-80
2023/12/28 00:15:02;;;;;;;4.10;1.13;;;;;;;-145.69;38.51;52238.44;4919471;29;20217;-80
2023/12/28 00:17:28;;;;;;;2.13;0.93;;;;;;;-145.69;38.72;52252.28;4919180;29;20208;-80
2023/12/28 00:19:55;;;;;;;1.30;1.20;;;;;;;-145.69;39.29;52262.19;4917937;29;20208;-80
2023/12/28 00:22:23;;;;;;;4.23;1.10;;;;;;;-145.69;38.56;52218.63;4919414;29;20228;-81
2023/12/28 00:24:49;;;;;;;1.10;1.00;;;;;;;-145.69;38.51;52236.44;4919153;29;20215;-79
2023/12/28 00:27:16;;;;;;;1.83;1.17;;;;;;;-145.69;39.19;52226.53;4919238;29;20204;-80
2023/12/28 00:29:43;;;;;;;4.33;1.20;;;;;;;-145.69;39.02;52226.53;4919440;29;20204;-80
2023/12/28 00:32:09;;;;;;;2.53;1.30;;;;;;;-145.69;39.30;52246.34;4919024;29;20200;-80
2023/12/28 00:34:36;;;;;;;3.03;1.13;;;;;;;-145.69;39.65;52234.47;4919449;29;20208;-80
2023/12/28 00:37:02;;;;;;;1.80;1.10;;;;;;;-145.69;39.20;52204.75;4918919;29;20206;-81
2023/12/28 00:39:30;;;;;;;1.83;1.07;;;;;;;-145.69;39.27;52234.47;4918867;29;20232;-81
2023/12/28 00:41:57;;;;;;;2.80;1.40;;;;;;;-145.69;37.98;52232.50;4917678;29;20208;-81
2023/12/28 00:44:23;;;;;;;1.63;1.10;;;;;;;-145.69;38.21;52250.31;4918864;29;20208;-80
2023/12/28 00:46:49;;;;;;;1.53;1.10;;;;;;;-145.69;38.42;52234.47;4918862;29;20247;-80
2023/12/28 00:49:16;;;;;;;1.37;1.27;;;;;;;-145.69;38.41;52216.66;4918773;29;20683;-80
2023/12/28 00:51:42;;;;;;;2.57;1.20;;;;;;;-145.69;38.79;52188.91;4918395;29;20208;-80
2023/12/28 00:54:09;;;;;;;1.80;1.17;;;;;;;-145.69;37.68;52250.31;4918843;29;20211;-81
2023/12/28 00:56:37;;;;;;;2.70;1.47;;;;;;;-145.69;37.01;52216.66;4917197;29;20214;-80
2023/12/28 00:59:03;;;;;;;3.33;1.50;;;;;;;-145.69;38.39;52202.78;4918875;29;20707;-80
2023/12/28 01:01:31;;;;;;;2.57;1.40;;;;;;;-145.69;38.41;52228.53;4918340;29;20687;-81
2023/12/28 01:03:58;;;;;;;2.13;1.33;;;;;;;-145.69;38.61;52206.75;4918831;29;20219;-81
2023/12/28 01:06:27;;;;;;;2.10;1.50;;;;;;;-145.69;39.08;52216.66;4917993;29;20212;-80
2023/12/28 01:08:54;;;;;;;2.13;1.40;;;;;;;-145.69;39.91;52246.34;4909394;29;20648;-80
2023/12/28 01:11:20;;;;;;;2.33;1.20;;;;;;;-145.69;38.61;52202.78;4913151;29;20565;-81
2023/12/28 01:13:52;;;;;;;1.83;1.10;;;;;;;-145.69;38.25;52206.75;4916908;29;20259;-81
2023/12/28 01:16:18;;;;;;;2.40;1.03;;;;;;;-145.69;38.50;52218.63;4917757;29;20204;-80
2023/12/28 01:18:45;;;;;;;3.73;1.20;;;;;;;-145.69;38.26;52218.63;4917791;29;20224;-82
2023/12/28 01:21:11;;;;;;;1.77;1.20;;;;;;;-145.69;38.46;52230.50;4917806;29;20203;-81
2023/12/28 01:23:38;;;;;;;2.80;1.30;;;;;;;-145.69;37.87;52234.47;4918416;29;20204;-80
2023/12/28 01:26:04;;;;;;;1.67;1.10;;;;;;;-145.69;37.47;52216.66;4917140;29;20216;-80
2023/12/28 01:28:31;;;;;;;3.97;1.37;;;;;;;-145.69;36.80;52186.94;4916993;29;20584;-80
2023/12/28 01:30:58;;;;;;;2.47;1.20;;;;;;;-145.69;36.37;52206.75;4906049;29;20703;-80
2023/12/28 01:33:25;;;;;;;1.90;1.30;;;;;;;-145.69;36.00;52194.88;4918240;29;20216;-80
2023/12/28 01:35:52;;;;;;;2.60;1.40;;;;;;;-145.69;35.11;52186.94;4917878;29;20212;-81
2023/12/28 01:38:18;;;;;;;1.60;1.40;;;;;;;-145.69;35.61;52222.59;4917696;29;20232;-81
2023/12/28 01:40:45;;;;;;;4.50;1.30;;;;;;;-145.69;35.43;52190.91;4917318;29;20552;-81
2023/12/28 01:43:12;;;;;;;2.60;1.50;;;;;;;-145.69;35.36;52169.13;4917757;29;20263;-80
2023/12/28 01:45:38;;;;;;;1.40;1.30;;;;;;;-145.69;35.67;52250.31;4917909;29;20204;-80
2023/12/28 01:48:07;;;;;;;1.57;1.20;;;;;;;-145.69;35.70;52226.53;4916893;29;20260;-80
2023/12/28 01:50:33;;;;;;;2.00;1.30;;;;;;;-145.69;36.24;52196.84;4917513;29;20691;-80
2023/12/28 01:53:02;;;;;;;1.80;1.13;;;;;;;-145.69;36.34;52226.53;4917799;29;20215;-80
2023/12/28 01:55:31;;;;;;;1.90;1.20;;;;;;;-145.69;36.03;52210.72;4917856;29;20204;-80
2023/12/28 01:57:58;;;;;;;1.70;1.20;;;;;;;-145.69;36.55;52202.78;4917116;29;20204;-80
2023/12/28 02:00:25;;;;;;;1.97;1.30;;;;;;;-145.69;36.66;52236.44;4917359;29;20580;-80
2023/12/28 02:02:52;;;;;;;3.33;1.20;;;;;;;-145.69;36.41;52224.56;4917838;29;20200;-80
2023/12/28 02:05:20;;;;;;;1.83;1.40;;;;;;;-145.69;36.44;52210.72;4917785;29;20211;-79
2023/12/28 02:07:47;;;;;;;6.33;1.33;;;;;;;-145.69;36.66;52200.81;4916753;29;20205;-80
2023/12/28 02:10:13;;;;;;;2.20;1.40;;;;;;;-145.69;37.03;52228.53;4917261;29;20811;-80
2023/12/28 02:12:40;;;;;;;1.27;1.00;;;;;;;-145.69;36.97;52208.72;4908889;29;20208;-80
2023/12/28 02:15:07;;;;;;;1.87;1.20;;;;;;;-145.69;37.00;52204.75;4917287;29;20204;-80
2023/12/28 02:17:38;;;;;;;1.87;1.17;;;;;;;-145.69;36.80;52218.63;4905707;29;20546;-80
2023/12/28 02:20:07;;;;;;;4.67;1.30;;;;;;;-145.69;36.50;52210.72;4916974;29;20569;-80
2023/12/28 02:22:35;;;;;;;2.70;1.30;;;;;;;-145.69;36.55;52214.66;4917414;29;20537;-80
2023/12/28 02:25:07;;;;;;;1.97;1.27;;;;;;;-145.69;36.26;52196.84;4917317;29;20625;-80
2023/12/28 02:27:36;;;;;;;1.77;1.10;;;;;;;-145.69;35.59;52210.72;4916698;29;20204;-80
2023/12/28 02:30:03;;;;;;;3.20;1.20;;;;;;;-145.69;35.35;52177.03;4916671;29;20262;-81
2023/12/28 02:32:43;;;;;;;2.13;1.27;;;;;;;-145.69;35.57;52190.91;4910581;29;20339;-80
2023/12/28 02:35:17;;;;;;;1.67;1.13;;;;;;;-145.69;35.39;52173.09;4898416;29;20216;-80
2023/12/28 02:37:48;;;;;;;4.27;1.20;;;;;;;-145.69;35.83;52179.03;4906053;29;20200;-80
2023/12/28 02:40:17;;;;;;;3.10;1.40;;;;;;;-145.69;36.52;52222.59;4916699;29;20513;-80
2023/12/28 02:42:43;;;;;;;3.37;1.50;;;;;;;-145.69;35.73;52198.81;4910324;29;20680;-80
2023/12/28 02:45:10;;;;;;;3.87;1.20;;;;;;;-145.69;36.06;52192.88;4904143;29;20211;-80
2023/12/28 02:47:36;;;;;;;1.57;1.00;;;;;;;-145.69;35.39;52198.81;4914460;29;20192;-80
2023/12/28 02:50:03;;;;;;;1.80;1.30;;;;;;;-145.69;35.23;52188.91;4916452;29;20192;-80
2023/12/28 02:52:29;;;;;;;2.27;1.30;;;;;;;-145.69;35.22;52194.88;4916718;29;20207;-80
2023/12/28 02:54:56;;;;;;;1.30;1.20;;;;;;;-145.69;34.97;52202.78;4916954;29;20204;-80
2023/12/28 02:57:24;;;;;;;3.70;1.30;;;;;;;-145.69;35.71;52196.84;4916211;29;20204;-80
2023/12/28 02:59:50;;;;;;;3.03;1.27;;;;;;;-145.69;35.54;52167.13;4916792;29;20235;-80
2023/12/28 03:02:16;;;;;;;2.13;1.47;;;;;;;-145.69;35.73;52208.72;4916350;29;20208;-80
2023/12/28 03:04:43;;;;;;;1.57;1.30;;;;;;;-145.69;34.49;52163.19;4916815;29;20200;-81
2023/12/28 03:07:09;;;;;;;1.90;1.07;;;;;;;-145.69;35.32;52230.50;4916396;29;20679;-80
2023/12/28 03:09:38;;;;;;;1.70;1.00;;;;;;;-145.69;34.43;52184.97;4916631;29;20250;-81
2023/12/28 03:12:05;;;;;;;1.97;1.00;;;;;;;-145.69;35.01;52186.94;4914405;29;20224;-81
2023/12/28 03:14:33;;;;;;;2.37;1.33;;;;;;;-145.69;34.97;52177.03;4915950;29;20208;-80
2023/12/28 03:16:59;;;;;;;2.53;1.40;;;;;;;-145.69;35.09;52186.94;4916445;29;20243;-80
2023/12/28 03:19:26;;;;;;;1.73;1.20;;;;;;;-145.69;34.88;52192.88;4915320;29;20238;-81
2023/12/28 03:21:52;;;;;;;3.67;1.23;;;;;;;-145.69;35.59;52198.81;4916513;29;20211;-80
2023/12/28 03:24:18;;;;;;;2.17;1.40;;;;;;;-145.69;35.53;52216.66;4916612;29;20557;-80
2023/12/28 03:26:45;;;;;;;1.10;1.00;;;;;;;-145.69;35.46;52179.03;4916130;29;20264;-80
2023/12/28 03:29:11;;;;;;;3.60;0.90;;;;;;;-145.69;35.34;52200.81;4915669;29;20208;-80
2023/12/28 03:31:41;;;;;;;2.07;1.20;;;;;;;-145.69;36.06;52171.09;4910253;29;20205;-80
2023/12/28 03:34:07;;;;;;;2.10;1.00;;;;;;;-145.69;35.96;52214.66;4903292;29;20256;-79
2023/12/28 03:36:34;;;;;;;1.37;1.07;;;;;;;-145.69;35.62;52218.63;4920149;29;20215;-80
2023/12/28 03:39:00;;;;;;;2.67;1.00;;;;;;;-145.69;36.03;52208.72;4920316;29;20232;-79
2023/12/28 03:41:27;;;;;;;2.17;1.30;;;;;;;-145.69;36.51;52167.13;4919277;29;20227;-80
2023/12/28 03:43:53;;;;;;;2.00;1.30;;;;;;;-145.69;36.90;52165.16;4920478;29;20208;-80
2023/12/28 03:46:19;;;;;;;1.53;1.33;;;;;;;-145.69;36.73;52198.81;4919956;29;20204;-79
2023/12/28 03:48:47;;;;;;;2.77;1.30;;;;;;;-145.69;36.75;52175.06;4919810;29;20207;-80
2023/12/28 03:51:14;;;;;;;4.77;1.20;;;;;;;-145.69;36.64;52186.94;4920294;29;20627;-79
2023/12/28 03:53:41;;;;;;;2.07;1.17;;;;;;;-145.69;36.60;52232.50;4920292;29;20235;-79
2023/12/28 03:56:07;;;;;;;2.77;1.37;;;;;;;-145.69;36.46;52190.91;4920137;29;20664;-80
2023/12/28 03:58:34;;;;;;;1.27;1.13;;;;;;;-145.69;36.42;52186.94;4908869;29;20201;-80
2023/12/28 04:01:00;;;;;;;1.23;1.10;;;;;;;-145.69;36.21;52226.53;4918480;29;20680;-80
2023/12/28 04:03:27;;;;;;;2.97;1.47;;;;;;;-145.69;36.38;52159.22;4919750;29;20200;-79
2023/12/28 04:05:54;;;;;;;1.93;1.00;;;;;;;-145.69;36.33;52163.19;4919440;29;20200;-80
2023/12/28 04:08:21;;;;;;;1.80;1.20;;;;;;;-145.69;37.04;52167.13;4918504;29;20454;-80
2023/12/28 04:10:47;;;;;;;1.33;0.97;;;;;;;-145.69;36.67;52196.84;4914502;29;20597;-79
2023/12/28 04:13:14;;;;;;;1.33;1.03;;;;;;;-145.69;37.12;52181.00;4907075;29;20196;-79
2023/12/28 04:15:44;;;;;;;1.50;1.20;;;;;;;-145.69;37.24;52196.84;4919391;29;20227;-80
2023/12/28 04:18:10;;;;;;;1.98;1.20;;;;;;;-145.69;37.66;52194.88;4919283;29;20510;-79
2023/12/28 04:20:36;;;;;;;1.77;1.00;;;;;;;-145.69;36.77;52212.69;4919642;29;20232;-80
2023/12/28 04:23:04;;;;;;;1.67;1.20;;;;;;;-145.69;37.18;52179.03;4919828;29;20212;-79
2023/12/28 04:25:31;;;;;;;1.13;0.87;;;;;;;-145.69;37.42;52190.91;4919645;29;20211;-79
2023/12/28 04:27:57;;;;;;;3.83;1.00;;;;;;;-145.69;37.29;52210.72;4918569;29;20209;-80
2023/12/28 04:30:23;;;;;;;4.17;1.00;;;;;;;-145.69;38.03;52220.59;4918752;29;20251;-81
2023/12/28 04:32:50;;;;;;;1.47;1.00;;;;;;;-145.69;37.93;52173.09;4919216;29;20212;-80
2023/12/28 04:35:16;;;;;;;1.77;0.90;;;;;;;-145.69;38.23;52167.13;4918989;29;20676;-80
2023/12/28 04:37:43;;;;;;;1.10;0.97;;;;;;;-145.69;37.97;52210.72;4917650;29;20207;-80
2023/12/28 04:40:14;;;;;;;1.47;1.07;;;;;;;-145.69;37.99;52198.81;4919539;29;20239;-80
2023/12/28 04:42:40;;;;;;;2.70;1.20;;;;;;;-145.69;38.04;52196.84;4918343;29;20192;-80
2023/12/28 04:45:08;;;;;;;2.13;1.33;;;;;;;-145.69;38.27;52188.91;4918164;29;20559;-80
2023/12/28 04:47:34;;;;;;;2.17;1.23;;;;;;;-145.69;38.38;52202.78;4900511;29;20646;-80
2023/12/28 04:50:02;;;;;;;1.43;0.93;;;;;;;-145.69;38.42;52179.03;4906463;29;20192;-80
2023/12/28 04:52:29;;;;;;;1.13;1.00;;;;;;;-145.69;38.78;52202.78;4919133;29;20200;-80
2023/12/28 04:54:55;;;;;;;1.83;1.10;;;;;;;-145.69;38.73;52190.91;4919424;29;20255;-80
2023/12/28 04:57:24;;;;;;;1.33;0.90;;;;;;;-145.69;39.60;52192.88;4914124;29;20601;-81
2023/12/28 04:59:51;;;;;;;1.30;1.00;;;;;;;-145.69;39.04;52204.75;4915274;29;20251;-80
2023/12/28 05:02:17;;;;;;;1.67;0.90;;;;;;;-145.69;39.19;52179.03;4918519;29;20648;-80
2023/12/28 05:04:44;;;;;;;1.33;0.90;;;;;;;-145.69;40.17;52198.81;4918590;29;20211;-80
2023/12/28 05:07:10;;;;;;;1.40;1.07;;;;;;;-145.69;40.13;52181.00;4918539;29;20196;-80
2023/12/28 05:09:37;;;;;;;3.03;1.13;;;;;;;-145.69;40.47;52210.72;4918628;29;20299;-81
2023/12/28 05:12:04;;;;;;;1.87;1.27;;;;;;;-145.69;40.49;52202.78;4918606;29;20208;-81
2023/12/28 05:14:33;;;;;;;3.43;1.60;;;;;;;-145.69;41.07;52190.91;4911806;29;20202;-81
2023/12/28 05:16:59;;;;;;;2.47;1.50;;;;;;;-145.69;41.26;52194.88;4918673;29;20200;-80
2023/12/28 05:19:25;;;;;;;1.50;1.13;;;;;;;-145.69;41.64;52181.00;4918685;29;20318;-80
2023/12/28 05:21:52;;;;;;;4.07;1.40;;;;;;;-145.69;41.76;52192.88;4918664;29;20251;-80
2023/12/28 05:24:18;;;;;;;2.93;1.10;;;;;;;-145.69;41.57;52181.00;4918327;29;20207;-80
2023/12/28 05:26:45;;;;;;;2.77;1.23;;;;;;;-145.69;41.54;52214.66;4918237;29;20212;-81
2023/12/28 05:29:11;;;;;;;1.30;0.90;;;;;;;-145.69;41.85;52214.66;4917952;29;20196;-80
2023/12/28 05:31:39;;;;;;;1.20;0.97;;;;;;;-145.69;42.66;52186.94;4918118;29;20238;-81
2023/12/28 05:34:06;;;;;;;1.80;1.00;;;;;;;-145.69;41.72;52188.91;4917827;29;20706;-80
2023/12/28 05:36:32;;;;;;;4.03;0.80;;;;;;;-145.69;41.91;52175.06;4918355;29;20259;-80
2023/12/28 05:38:58;;;;;;;1.73;1.07;;;;;;;-145.69;41.64;52182.97;4918238;29;20260;-81
2023/12/28 05:41:25;;;;;;;1.40;0.80;;;;;;;-145.69;41.65;52200.81;4917593;29;20211;-81
2023/12/28 05:43:51;;;;;;;1.97;1.10;;;;;;;-145.69;41.83;52175.06;4917852;29;20589;-81
2023/12/28 05:46:18;;;;;;;2.63;0.80;;;;;;;-145.69;42.54;52186.94;4917525;29;20204;-80
2023/12/28 05:48:46;;;;;;;1.87;1.00;;;;;;;-145.69;42.27;52194.88;4916513;29;20196;-81
2023/12/28 05:51:12;;;;;;;2.03;0.90;;;;;;;-145.69;41.95;52186.94;4917989;29;20291;-80
2023/12/28 05:53:39;;;;;;;3.80;1.02;;;;;;;-145.69;42.41;52190.91;4918027;29;20204;-80
2023/12/28 05:56:05;;;;;;;2.20;1.07;;;;;;;-145.69;42.14;52177.03;4918282;29;20208;-81
2023/12/28 05:58:32;;;;;;;3.17;0.80;;;;;;;-145.69;42.79;52186.94;4916969;29;20204;-80
2023/12/28 06:00:58;;;;;;;2.97;1.00;;;;;;;-145.69;43.15;52161.19;4917493;29;20297;-80
2023/12/28 06:03:27;;;;;;;2.27;1.00;;;;;;;-145.69;42.89;52186.94;4917091;29;20613;-80
2023/12/28 06:05:55;;;;;;;1.60;1.00;;;;;;;-145.69;42.28;52139.41;4917793;29;20204;-79
2023/12/28 06:08:22;;;;;;;2.57;0.87;;;;;;;-145.69;42.54;52212.69;4916856;29;20232;-79
2023/12/28 06:10:48;;;;;;;3.70;0.87;;;;;;;-145.69;42.72;52171.09;4917277;29;20622;-80
2023/12/28 06:13:20;;;;;;;2.73;1.00;;;;;;;-145.69;43.07;52149.31;4917514;29;20556;-81
2023/12/28 06:15:46;;;;;;;1.47;0.90;;;;;;;-145.69;43.74;52149.31;4913130;29;20358;-79
2023/12/28 06:18:13;;;;;;;0.80;0.80;;;;;;;-145.69;42.67;52159.22;4917686;29;20259;-79
2023/12/28 06:20:39;;;;;;;3.90;1.03;;;;;;;-145.69;43.57;52151.28;4917053;29;20315;-80
2023/12/28 06:23:08;;;;;;;2.03;0.80;;;;;;;-145.69;43.55;52151.28;4916897;29;20843;-81
2023/12/28 06:25:35;;;;;;;1.70;0.83;;;;;;;-145.69;44.07;52196.84;4917308;29;20240;-79
2023/12/28 06:28:01;;;;;;;0.83;0.70;;;;;;;-145.69;43.67;52179.03;4916976;29;20686;-82
2023/12/28 06:30:29;;;;;;;4.03;1.03;;;;;;;-145.69;44.53;52179.03;4916365;29;20214;-82
2023/12/28 06:32:55;;;;;;;1.85;0.90;;;;;;;-145.69;44.63;52171.09;4917528;29;20690;-80
2023/12/28 06:35:21;;;;;;;2.63;1.20;;;;;;;-145.69;44.33;52198.81;4917298;29;20291;-81
2023/12/28 06:37:48;;;;;;;3.67;1.33;;;;;;;-145.69;44.89;52167.13;4916861;29;20196;-80
2023/12/28 06:40:16;;;;;;;4.00;0.90;;;;;;;-145.69;45.02;52182.97;4916988;29;20236;-80
2023/12/28 06:42:43;;;;;;;1.37;1.13;;;;;;;-145.69;44.93;52161.19;4911650;29;20204;-80
2023/12/28 06:45:10;;;;;;;5.27;1.50;;;;;;;-145.69;44.73;52175.06;4916540;29;20204;-81
2023/12/28 06:47:36;;;;;;;6.23;1.50;;;;;;;-145.69;44.75;52222.59;4916677;29;20195;-81
2023/12/28 06:50:03;;;;;;;2.33;1.30;;;;;;;-145.69;44.63;52173.09;4910115;29;20208;-80
2023/12/28 06:52:31;;;;;;;2.33;1.27;;;;;;;-145.69;44.99;52171.09;4898093;29;20213;-80
2023/12/28 06:54:57;;;;;;;1.73;1.20;;;;;;;-145.69;45.22;52179.03;4898410;29;20256;-81
2023/12/28 06:57:25;;;;;;;3.17;1.10;;;;;;;-145.69;44.37;52163.19;4907974;29;20196;-81
2023/12/28 06:59:52;;;;;;;3.93;1.20;;;;;;;-145.69;44.73;52181.00;4915890;29;20231;-80
2023/12/28 07:02:18;;;;;;;2.90;1.10;;;;;;;-145.69;44.57;52179.03;4916199;29;20556;-81
2023/12/28 07:04:45;;;;;;;2.17;0.90;;;;;;;-145.69;44.23;52163.19;4916707;29;20200;-80
2023/12/28 07:07:11;;;;;;;2.90;1.20;;;;;;;-145.69;45.31;52194.88;4916268;29;20216;-80
2023/12/28 07:09:37;;;;;;;4.45;1.13;;;;;;;-145.69;44.77;52214.66;4916650;29;20228;-80
2023/12/28 07:12:05;;;;;;;4.37;1.20;;;;;;;-145.69;44.45;52179.03;4912738;29;20200;-80
2023/12/28 07:14:32;;;;;;;2.10;1.25;;;;;;;-145.69;44.73;52206.75;4915967;29;20283;-79
2023/12/28 07:16:59;;;;;;;4.93;1.23;;;;;;;-145.69;44.51;52186.94;4916138;29;20235;-80
2023/12/28 07:19:26;;;;;;;2.20;1.33;;;;;;;-145.69;44.45;52196.84;4909002;29;20224;-80
2023/12/28 07:21:52;;;;;;;4.17;1.00;;;;;;;-145.69;43.81;52163.19;4897808;29;20245;-80
2023/12/28 07:24:19;;;;;;;4.60;1.20;;;;;;;-145.69;44.17;52179.03;4898357;29;20216;-79
2023/12/28 07:26:45;;;;;;;1.40;1.07;;;;;;;-145.69;44.32;52163.19;4916542;29;20648;-80
2023/12/28 07:29:11;;;;;;;2.53;1.00;;;;;;;-145.69;43.80;52157.25;4910669;29;20256;-79
2023/12/28 07:31:39;;;;;;;1.57;1.00;;;;;;;-145.69;43.66;52188.91;4915801;29;20199;-80
2023/12/28 07:34:06;;;;;;;3.15;1.30;;;;;;;-145.69;43.17;52190.91;4916398;29;20204;-80
2023/12/28 07:36:33;;;;;;;2.63;1.60;;;;;;;-145.69;41.86;52135.47;4916491;29;20205;-81
2023/12/28 07:39:00;;;;;;;4.23;1.67;;;;;;;-145.69;41.80;52163.19;4916424;29;20232;-80
2023/12/28 07:41:26;;;;;;;3.23;1.40;;;;;;;-145.69;42.08;52202.78;4912422;29;20230;-80
2023/12/28 07:43:53;;;;;;;4.63;1.40;;;;;;;-145.69;41.13;52190.91;4906964;29;20204;-80
2023/12/28 07:46:20;;;;;;;2.13;1.50;;;;;;;-145.69;41.08;52175.06;4915907;29;20679;-80
2023/12/28 07:48:48;;;;;;;4.93;1.45;;;;;;;-145.69;41.01;52177.03;4916466;29;20208;-80
2023/12/28 07:51:14;;;;;;;3.30;1.63;;;;;;;-145.69;40.99;52171.09;4916368;29;20672;-80
2023/12/28 07:53:41;;;;;;;2.80;1.30;;;;;;;-145.69;39.84;52190.91;4915465;29;20196;-79
2023/12/28 07:56:07;;;;;;;2.72;1.50;;;;;;;-145.69;39.47;52139.41;4915458;29;20205;-80
2023/12/28 07:58:34;;;;;;;3.17;1.35;;;;;;;-145.69;40.10;52159.22;4915211;29;20198;-80
2023/12/28 08:01:00;;;;;;;5.10;2.00;;;;;;;-145.69;39.82;52188.91;4915588;29;20255;-81
2023/12/28 08:03:26;;;;;;;4.28;2.03;;;;;;;-145.69;39.48;52167.13;4915686;29;20259;-80
2023/12/28 08:05:54;;;;;;;4.20;1.90;;;;;;;-145.69;39.86;52167.13;4916254;29;20200;-80
2023/12/28 08:08:20;;;;;;;4.55;2.60;;;;;;;-145.69;39.39;52167.13;4915905;29;20216;-80
2023/12/28 08:10:47;;;;;;;14.30;6.85;;;;;;;-145.69;39.19;52159.22;4914905;29;20224;-80
2023/12/28 08:13:13;;;;;;;11.00;5.15;;;;;;;-145.69;39.50;52155.25;4915305;29;20197;-80
2023/12/28 08:15:40;;;;;;;8.60;4.47;;;;;;;-145.69;38.93;52169.13;4914667;29;20201;-80
2023/12/28 08:18:06;;;;;;;14.43;6.40;;;;;;;-145.69;39.07;52192.88;4915289;29;20204;-80
2023/12/28 08:20:33;;;;;;;13.73;6.45;;;;;;;-145.69;39.34;52167.13;4919313;29;20232;-80
2023/12/28 08:23:00;;;;;;;13.30;6.70;;;;;;;-145.69;39.04;52151.28;4918043;29;20252;-79
2023/12/28 08:25:27;;;;;;;11.73;6.07;;;;;;;-145.69;39.27;52145.34;4919320;29;20349;-81
2023/12/28 08:27:53;;;;;;;6.38;3.85;;;;;;;-145.69;38.83;52190.91;4918953;29;20207;-80
2023/12/28 08:30:20;;;;;;;4.30;2.80;;;;;;;-145.69;38.78;52139.41;4914011;29;20204;-80
2023/12/28 08:32:46;;;;;;;1.73;1.50;;;;;;;-145.69;38.98;52157.25;4917852;29;20252;-80
2023/12/28 08:35:13;;;;;;;3.28;1.50;;;;;;;-145.69;38.42;52159.22;4917602;29;20295;-80
2023/12/28 08:37:39;;;;;;;4.13;1.67;;;;;;;-145.69;38.80;52167.13;4918199;29;20197;-80
2023/12/28 08:40:08;;;;;;;3.00;1.45;;;;;;;-145.69;38.52;52115.66;4919247;29;20211;-80
2023/12/28 08:42:35;;;;;;;2.83;1.60;;;;;;;-145.69;38.80;52163.19;4918138;29;20204;-80
2023/12/28 08:45:01;;;;;;;2.33;1.20;;;;;;;-145.69;38.53;52111.69;4919013;29;20207;-80
2023/12/28 08:47:28;;;;;;;2.08;1.20;;;;;;;-145.69;38.45;52147.34;4918405;29;20246;-80
2023/12/28 08:49:55;;;;;;;3.60;1.23;;;;;;;-145.69;37.93;52137.44;4918761;29;20557;-80
2023/12/28 08:52:21;;;;;;;1.73;1.02;;;;;;;-145.69;38.06;52111.69;4918899;29;20204;-78
2023/12/28 08:54:47;;;;;;;2.25;1.30;;;;;;;-145.69;38.08;52129.50;4918849;29;20204;-81
2023/12/28 08:57:15;;;;;;;3.22;0.90;;;;;;;-145.69;38.15;52139.41;4918924;29;20236;-79
2023/12/28 08:59:42;;;;;;;2.38;1.30;;;;;;;-145.69;38.30;52155.25;4918682;29;20663;-80
2023/12/28 09:02:08;;;;;;;1.92;1.20;;;;;;;-145.69;38.06;52131.50;4918230;29;20228;-80
2023/12/28 09:04:35;;;;;;;2.17;1.30;;;;;;;-145.69;38.42;52171.09;4918561;29;20200;-80
2023/12/28 09:07:02;;;;;;;2.33;1.30;;;;;;;-145.69;38.52;52149.31;4918694;29;20572;-80
2023/12/28 09:09:28;;;;;;;2.15;1.02;;;;;;;-145.69;38.27;52179.03;4917621;29;20228;-80
2023/12/28 09:11:55;;;;;;;4.28;1.27;;;;;;;-145.69;38.58;52198.81;4917525;29;20726;-81
2023/12/28 09:14:23;;;;;;;3.08;1.20;;;;;;;-145.69;38.91;52123.56;4918098;29;20200;-80
2023/12/28 09:16:49;;;;;;;4.68;1.40;;;;;;;-145.69;39.18;52125.56;4916580;29;20572;-80
2023/12/28 09:19:15;;;;;;;2.00;1.30;;;;;;;-145.69;38.14;52147.34;4912239;29;20197;-80
2023/12/28 09:21:42;;;;;;;2.30;1.10;;;;;;;-145.69;38.93;52107.72;4899650;29;20236;-79
2023/12/28 09:24:08;;;;;;;2.15;1.05;;;;;;;-145.69;38.83;52135.47;4911904;29;20239;-79
2023/12/28 09:26:35;;;;;;;1.83;1.00;;;;;;;-145.69;39.00;52151.28;4918244;29;20660;-81
2023/12/28 09:29:01;;;;;;;1.00;0.90;;;;;;;-145.69;39.65;52117.63;4917832;29;20197;-79
2023/12/28 09:31:29;;;;;;;2.92;1.00;;;;;;;-145.69;40.52;52171.09;4917541;29;20200;-79
2023/12/28 09:33:56;;;;;;;1.55;0.98;;;;;;;-145.69;40.55;52131.50;4917703;29;20210;-81
2023/12/28 09:36:22;;;;;;;1.33;0.98;;;;;;;-145.69;40.80;52099.81;4917008;29;20564;-81
2023/12/28 09:38:48;;;;;;;1.15;0.80;;;;;;;-145.69;40.60;52127.53;4918254;29;20664;-81
2023/12/28 09:41:16;;;;;;;1.38;1.00;;;;;;;-145.69;41.84;52157.25;4917179;29;20281;-80
2023/12/28 09:43:52;;;;;;;1.50;0.85;;;;;;;-145.69;41.35;52121.59;4917538;29;20204;-82
2023/12/28 09:46:19;;;;;;;1.90;1.10;;;;;;;-145.69;41.03;52137.44;4917060;29;20203;-83
2023/12/28 09:48:47;;;;;;;1.23;0.98;;;;;;;-145.69;41.80;52143.38;4902996;29;20208;-81
2023/12/28 09:51:13;;;;;;;1.65;0.80;;;;;;;-145.69;42.18;52141.41;4898739;29;20209;-81
2023/12/28 09:53:40;;;;;;;3.97;1.10;;;;;;;-145.69;42.82;52149.31;4917460;29;20200;-80
2023/12/28 09:56:08;;;;;;;1.25;1.15;;;;;;;-145.69;42.18;52109.72;4917541;29;20196;-80
2023/12/28 09:58:36;;;;;;;1.63;1.20;;;;;;;-145.69;42.49;52135.47;4917697;29;20212;-80
2023/12/28 10:01:04;;;;;;;2.28;0.95;;;;;;;-145.69;42.51;52131.50;4917199;29;20227;-80
2023/12/28 10:03:30;;;;;;;1.08;0.70;;;;;;;-145.69;43.04;52127.53;4917120;29;20200;-81
2023/12/28 10:05:58;;;;;;;0.95;0.82;;;;;;;-145.69;43.08;52131.50;4917456;29;20204;-79
2023/12/28 10:08:24;;;;;;;2.13;0.93;;;;;;;-145.69;42.90;52143.38;4917217;29;20208;-79
2023/12/28 10:10:53;;;;;;;1.05;0.90;;;;;;;-145.69;42.56;52143.38;4917511;29;20228;-79
2023/12/28 10:13:20;;;;;;;1.35;0.80;;;;;;;-145.69;42.92;52157.25;4905290;29;20231;-80
2023/12/28 10:15:47;;;;;;;1.60;1.05;;;;;;;-145.69;42.87;52143.38;4911032;29;20250;-79
2023/12/28 10:18:14;;;;;;;2.00;1.00;;;;;;;-145.69;43.47;52131.50;4916218;29;20199;-81
2023/12/28 10:20:40;;;;;;;2.13;1.00;;;;;;;-145.69;43.26;52143.38;4916959;29;20687;-80
2023/12/28 10:23:10;;;;;;;1.52;0.75;;;;;;;-145.69;43.61;52119.63;4917690;29;20219;-80
2023/12/28 10:25:36;;;;;;;2.50;0.90;;;;;;;-145.69;43.16;52139.41;4916945;29;20228;-79
2023/12/28 10:28:05;;;;;;;4.35;1.20;;;;;;;-145.69;43.35;52151.28;4917520;29;20204;-80
2023/12/28 10:30:32;;;;;;;1.60;1.00;;;;;;;-145.69;43.39;52129.50;4914058;29;20252;-80
2023/12/28 10:32:58;;;;;;;1.98;1.00;;;;;;;-145.69;43.86;52099.81;4915453;29;20203;-80
2023/12/28 10:35:25;;;;;;;1.25;0.85;;;;;;;-145.69;44.02;52107.72;4917214;29;20203;-80
2023/12/28 10:37:53;;;;;;;2.30;0.90;;;;;;;-145.69;44.17;52127.53;4917262;29;20624;-80
2023/12/28 10:40:22;;;;;;;2.25;0.82;;;;;;;-145.69;44.32;52117.63;4917187;29;20236;-79
2023/12/28 10:42:53;;;;;;;2.70;0.90;;;;;;;-145.69;44.53;52127.53;4916083;29;20223;-80
2023/12/28 10:45:23;;;;;;;2.22;1.20;;;;;;;-145.69;45.21;52123.56;4916711;29;20232;-80
2023/12/28 10:47:59;;;;;;;2.67;1.08;;;;;;;-145.69;44.50;52113.66;4917366;29;20236;-80
2023/12/28 10:50:29;;;;;;;1.45;1.02;;;;;;;-145.69;44.55;52125.56;4916910;29;20219;-80
2023/12/28 10:53:05;;;;;;;1.83;1.10;;;;;;;-145.69;44.25;52147.34;4915837;29;20655;-80
2023/12/28 10:55:41;;;;;;;1.10;1.00;;;;;;;-145.69;44.51;52111.69;4913358;29;20251;-80
2023/12/28 10:58:12;;;;;;;1.25;0.93;;;;;;;-145.69;44.45;52121.59;4916997;29;20199;-80
2023/12/28 11:00:46;;;;;;;6.95;1.05;;;;;;;-145.69;44.64;52145.34;4914389;29;20679;-80
2023/12/28 11:03:19;;;;;;;3.40;1.10;;;;;;;-145.69;44.68;52125.56;4916183;29;20196;-80
2023/12/28 11:05:47;;;;;;;4.05;1.38;;;;;;;-145.69;44.64;52123.56;4914085;29;20226;-80
2023/12/28 11:08:15;;;;;;;1.50;0.95;;;;;;;-145.69;44.93;52141.41;4916394;29;20204;-80
2023/12/28 11:10:43;;;;;;;0.88;0.70;;;;;;;-145.69;44.37;52113.66;4915083;29;20244;-80
2023/12/28 11:13:11;;;;;;;1.33;0.80;;;;;;;-145.69;44.30;52137.44;4898060;29;20212;-80
2023/12/28 11:15:39;;;;;;;0.80;0.77;;;;;;;-145.69;43.81;52147.34;4915825;29;20211;-80